»·PEaware :: PSV335 KSNA-KLAS

PSV335 :: KSNA-KLAS

FLIGHT INFORMATION

Flight Status: Arrived
Operator:
Power Set Virtual (website)
More flights by this operator :: More flights under this callsign
Pilot: Juan B. (20291)
Aircraft: BOEING 737-800
(B738)
More flights by this aircraft type
Origin: KSNA John Wayne-Orange Co
United States
Destination: KLAS McCarran Intl
United States
More flights between these airports :: More routes between these airports
Route: FINZZ2 MISEN KEPEC6
File this flight plan on PilotEdge
Remarks: PSV callsign "Power"
Altitude:
(Current/Filed)
33,000ft
Speed:
(Current/Filed)
450kts
Departed: 26-Apr-20 06:56 PM
Arrived: 26-Apr-20 07:39 PM
Distance/Time
Traveled:
197nm/0:43
Distance/Time
To Go:
Arrived

Flight Plot

Page will automatically refresh every two minutes.


Map Options




Map Legend


Flown Route
Filed Route
Departure Airport
Arrival Airport
Navaid (VOR, NDB)
Fix

Horizontal Profiles

Position Reports

Time Latitude Longitude Heading Altitude Ground
Speed
26-Apr-20 18:39 33.676820 -117.863940 119 67ft 0kts
26-Apr-20 18:40 33.676820 -117.863940 119 67ft 0kts
26-Apr-20 18:41 33.676820 -117.863940 119 67ft 0kts
26-Apr-20 18:42 33.676820 -117.863940 119 67ft 0kts
26-Apr-20 18:43 33.676820 -117.863940 119 67ft 0kts
26-Apr-20 18:44 33.676820 -117.863940 119 67ft 0kts
26-Apr-20 18:45 33.676820 -117.863940 119 67ft 0kts
26-Apr-20 18:45 33.676820 -117.863940 119 67ft 0kts
26-Apr-20 18:47 33.676820 -117.863940 119 67ft 0kts
26-Apr-20 18:48 33.676820 -117.863940 119 67ft 0kts
26-Apr-20 18:48 33.676820 -117.863941 119 67ft 0kts
26-Apr-20 18:50 33.676859 -117.864573 65 67ft 2kts
26-Apr-20 18:50 33.676587 -117.864921 30 67ft 0kts
26-Apr-20 18:51 33.676588 -117.864920 30 66ft 0kts
26-Apr-20 18:52 33.676782 -117.864785 29 66ft 4kts
26-Apr-20 18:53 33.679629 -117.862975 27 66ft 12kts
26-Apr-20 18:54 33.681131 -117.864119 298 67ft 0kts
26-Apr-20 18:55 33.679979 -117.866124 207 67ft 60kts
26-Apr-20 18:56 33.643109 -117.887545 199 1905ft 179kts
26-Apr-20 18:57 33.584718 -117.899663 197 3943ft 251kts
26-Apr-20 18:58 33.526669 -117.949411 225 7396ft 270kts
26-Apr-20 18:59 33.510285 -118.033611 291 7995ft 275kts
26-Apr-20 19:00 33.559955 -118.096646 329 7988ft 282kts
26-Apr-20 19:01 33.633130 -118.103481 18 7988ft 291kts
26-Apr-20 19:02 33.705341 -118.062264 24 7985ft 296kts
26-Apr-20 19:03 33.779165 -118.019161 23 10958ft 315kts
26-Apr-20 19:04 33.862141 -117.970722 23 13303ft 350kts
26-Apr-20 19:05 33.948508 -117.906616 34 15499ft 383kts
26-Apr-20 19:06 34.030979 -117.830838 34 18628ft 377kts
26-Apr-20 19:07 34.108310 -117.744375 45 20804ft 396kts
26-Apr-20 19:08 34.181468 -117.639912 47 22816ft 411kts
26-Apr-20 19:09 34.255617 -117.530602 47 24646ft 425kts
26-Apr-20 19:10 34.331517 -117.417542 47 26307ft 438kts
26-Apr-20 19:11 34.410131 -117.299852 48 26990ft 458kts
26-Apr-20 19:12 34.492675 -117.176126 48 26974ft 481kts
26-Apr-20 19:13 34.578002 -117.049002 47 26946ft 498kts
26-Apr-20 19:14 34.667871 -116.917691 48 26945ft 499kts
26-Apr-20 19:15 34.757181 -116.787484 48 26947ft 499kts
26-Apr-20 19:16 34.843850 -116.664888 42 26953ft 457kts
26-Apr-20 19:17 34.941480 -116.560928 35 26744ft 469kts
26-Apr-20 19:18 35.040423 -116.464387 34 25277ft 440kts
26-Apr-20 19:19 35.131419 -116.366334 41 23999ft 442kts
26-Apr-20 19:20 35.219865 -116.256548 42 23977ft 451kts
26-Apr-20 19:21 35.307499 -116.146837 43 23979ft 451kts
26-Apr-20 19:22 35.395017 -116.036748 43 23980ft 451kts
26-Apr-20 19:23 35.482430 -115.926373 43 21915ft 457kts
26-Apr-20 19:24 35.569824 -115.815558 44 17603ft 448kts
26-Apr-20 19:25 35.653210 -115.709257 44 13683ft 412kts
26-Apr-20 19:26 35.724994 -115.618229 38 12970ft 330kts
26-Apr-20 19:27 35.807214 -115.573788 3 12977ft 322kts
26-Apr-20 19:28 35.895930 -115.567746 359 13016ft 318kts
26-Apr-20 19:29 35.977634 -115.527742 50 12992ft 330kts
26-Apr-20 19:30 36.015369 -115.425454 68 11704ft 321kts
26-Apr-20 19:31 36.027232 -115.322129 95 10464ft 291kts
26-Apr-20 19:32 36.020284 -115.225595 96 9132ft 280kts
26-Apr-20 19:33 36.020917 -115.126612 93 7075ft 283kts
26-Apr-20 19:34 36.023163 -115.034957 55 5145ft 241kts
26-Apr-20 19:35 36.071184 -115.008771 327 3769ft 157kts
26-Apr-20 19:36 36.074086 -115.058707 271 2980ft 150kts
26-Apr-20 19:37 36.073697 -115.110296 271 2308ft 148kts
26-Apr-20 19:38 36.073634 -115.148734 269 2118ft 33kts
26-Apr-20 19:39 36.074833 -115.155391 300 2142ft 2kts
26-Apr-20 19:40 36.075933 -115.156884 316 2145ft 9kts
26-Apr-20 19:41 36.078007 -115.157625 83 2144ft 9kts
26-Apr-20 19:42 36.078845 -115.152551 53 2123ft 17kts
26-Apr-20 19:43 36.081398 -115.153621 320 2121ft 8kts
26-Apr-20 19:44 36.082772 -115.153612 84 2117ft 0kts

Navigation Log

Ident Type
Flight plan parsing failed, navigation log unavailable